Time;durP1;ratioP1;P1;durP2;ratioP2;P2;SDS_P1;SDS_P2;PMS_P1;PMS_P2;Temp;Humidity;BMP_temperature;BMP_pressure;BME280_temperature;BME280_humidity;BME280_pressure;Samples;Min_cycle;Max_cycle;Signal;HPM_P1;HPM_P2
2022/06/28 00:01:24;;;;;;;2.00;1.90;;;35.30;41.70;;;;;;5082845;28;20450;-66
2022/06/28 00:03:57;;;;;;;1.80;1.70;;;35.20;41.20;;;;;;5083357;28;20774;-64
2022/06/28 00:06:28;;;;;;;2.40;2.20;;;35.10;40.40;;;;;;5082254;28;20451;-64
2022/06/28 00:08:58;;;;;;;2.23;2.13;;;35.10;42.10;;;;;;5083938;28;20791;-64
2022/06/28 00:11:29;;;;;;;2.23;2.13;;;34.80;41.30;;;;;;5082265;28;20455;-64
2022/06/28 00:14:00;;;;;;;2.83;1.97;;;34.60;40.40;;;;;;5083867;28;20436;-65
2022/06/28 00:16:29;;;;;;;2.03;1.93;;;34.50;39.10;;;;;;5083231;28;20451;-65
2022/06/28 00:19:02;;;;;;;2.00;1.80;;;34.50;39.10;;;;;;5083306;28;20450;-65
2022/06/28 00:21:33;;;;;;;1.80;1.70;;;34.40;39.20;;;;;;5080027;28;20466;-64
2022/06/28 00:24:03;;;;;;;2.17;2.07;;;34.30;39.60;;;;;;5081577;28;20495;-64
2022/06/28 00:26:34;;;;;;;2.47;2.27;;;34.30;40.30;;;;;;5080485;28;20463;-65
2022/06/28 00:29:05;;;;;;;1.57;1.47;;;34.40;38.70;;;;;;5082243;28;20459;-65
2022/06/28 00:31:36;;;;;;;1.60;1.50;;;34.20;39.10;;;;;;5079729;28;20467;-65
2022/06/28 00:34:09;;;;;;;1.10;1.10;;;34.30;34.50;;;;;;5080750;28;20497;-65
2022/06/28 00:36:40;;;;;;;1.30;1.30;;;34.30;34.40;;;;;;5078801;28;20471;-66
2022/06/28 00:39:11;;;;;;;2.13;1.50;;;34.40;33.70;;;;;;5081041;28;20502;-66
2022/06/28 00:41:42;;;;;;;1.30;1.20;;;34.50;34.40;;;;;;5082229;28;20450;-66
2022/06/28 00:44:13;;;;;;;1.50;1.40;;;34.70;34.00;;;;;;5082329;28;20479;-65
2022/06/28 00:46:45;;;;;;;1.20;1.10;;;34.70;30.40;;;;;;5080891;28;20494;-66
2022/06/28 00:49:18;;;;;;;0.90;0.90;;;34.50;30.60;;;;;;5082521;28;20574;-66
2022/06/28 00:51:48;;;;;;;1.00;1.00;;;34.40;31.10;;;;;;5080832;28;20458;-65
2022/06/28 00:54:19;;;;;;;0.90;0.90;;;34.30;30.60;;;;;;5082474;28;20853;-65
2022/06/28 00:56:53;;;;;;;1.00;1.00;;;34.30;30.60;;;;;;5079607;28;20510;-66
2022/06/28 00:59:24;;;;;;;1.07;1.07;;;34.10;32.80;;;;;;5082612;28;20477;-65
2022/06/28 01:01:54;;;;;;;0.73;0.73;;;33.90;33.30;;;;;;5079486;28;20557;-66
2022/06/28 01:04:27;;;;;;;1.03;0.90;;;33.80;31.30;;;;;;5080821;28;20621;-66
2022/06/28 01:06:58;;;;;;;1.13;1.03;;;33.60;31.20;;;;;;5080149;28;20530;-67
2022/06/28 01:09:29;;;;;;;0.80;0.80;;;33.40;31.20;;;;;;5083259;28;20454;-68
2022/06/28 01:12:00;;;;;;;1.03;1.00;;;33.20;32.40;;;;;;5080974;28;20481;-65
2022/06/28 01:14:31;;;;;;;0.60;0.60;;;33.20;32.40;;;;;;5081538;28;20458;-67
2022/06/28 01:17:02;;;;;;;0.80;0.80;;;33.30;31.80;;;;;;5082068;28;20468;-64
2022/06/28 01:19:34;;;;;;;1.30;1.00;;;33.20;31.20;;;;;;5075705;28;20448;-65
2022/06/28 01:22:08;;;;;;;0.80;0.80;;;33.10;32.30;;;;;;5076308;28;20457;-65
2022/06/28 01:24:40;;;;;;;1.00;1.00;;;33.00;32.20;;;;;;5081100;28;20517;-65
2022/06/28 01:27:16;;;;;;;1.07;1.07;;;32.90;31.80;;;;;;5081102;28;20465;-65
2022/06/28 01:29:47;;;;;;;0.90;0.90;;;32.80;32.90;;;;;;5081588;28;20557;-66
2022/06/28 01:32:18;;;;;;;0.90;0.90;;;32.80;33.60;;;;;;5074306;28;20465;-65
2022/06/28 01:34:50;;;;;;;1.37;1.00;;;32.80;34.40;;;;;;5081522;28;20457;-65
2022/06/28 01:37:21;;;;;;;0.93;0.93;;;32.70;34.20;;;;;;5077406;28;20470;-64
2022/06/28 01:39:53;;;;;;;1.50;0.90;;;32.60;32.50;;;;;;5078938;28;20469;-66
2022/06/28 01:42:24;;;;;;;0.93;0.90;;;32.70;33.60;;;;;;5076805;28;20525;-65
2022/06/28 01:44:55;;;;;;;1.00;1.00;;;32.50;34.80;;;;;;5076138;28;20874;-65
2022/06/28 01:47:28;;;;;;;1.17;0.80;;;32.60;34.50;;;;;;5077694;28;20465;-68
2022/06/28 01:49:58;;;;;;;0.90;0.90;;;32.60;34.00;;;;;;5074976;28;20468;-68
2022/06/28 01:52:29;;;;;;;0.90;0.90;;;32.50;33.80;;;;;;5079657;28;20587;-65
2022/06/28 01:55:02;;;;;;;0.53;0.53;;;32.40;35.60;;;;;;5080584;28;20461;-66
2022/06/28 01:57:32;;;;;;;0.80;0.80;;;32.50;34.20;;;;;;5071080;28;20478;-65
2022/06/28 02:00:04;;;;;;;0.90;0.90;;;32.40;33.80;;;;;;5063389;28;21011;-65
2022/06/28 02:02:35;;;;;;;0.70;0.70;;;32.30;33.50;;;;;;5077552;28;20772;-65
2022/06/28 02:05:07;;;;;;;0.80;0.80;;;31.90;31.80;;;;;;5078413;28;20504;-66
2022/06/28 02:07:37;;;;;;;1.80;1.70;;;31.80;32.70;;;;;;5081050;28;20464;-65
2022/06/28 02:10:10;;;;;;;1.50;1.40;;;31.60;31.90;;;;;;5075176;28;20513;-65
2022/06/28 02:12:41;;;;;;;0.80;0.80;;;31.50;33.40;;;;;;5081534;28;20455;-66
2022/06/28 02:15:13;;;;;;;0.70;0.70;;;31.50;30.80;;;;;;5074592;28;20574;-67
2022/06/28 02:17:45;;;;;;;0.70;0.60;;;31.50;31.00;;;;;;5079998;28;20466;-67
2022/06/28 02:20:16;;;;;;;1.00;0.90;;;31.30;31.20;;;;;;5080127;28;20473;-67
2022/06/28 02:22:47;;;;;;;0.60;0.60;;;31.10;31.80;;;;;;5079827;28;20556;-67
2022/06/28 02:25:20;;;;;;;0.60;0.60;;;31.10;30.60;;;;;;5080186;28;20969;-67
2022/06/28 02:27:51;;;;;;;0.50;0.50;;;31.00;29.60;;;;;;5081178;28;20468;-67
2022/06/28 02:30:22;;;;;;;0.30;0.30;;;30.80;29.80;;;;;;5080823;28;20473;-66
2022/06/28 02:32:53;;;;;;;0.70;0.57;;;30.60;29.00;;;;;;5081443;28;20492;-67
2022/06/28 02:41:00;;;;;;;0.60;0.60;;;30.40;29.00;;;;;;5081592;28;20544;-68
2022/06/28 02:43:31;;;;;;;1.23;0.57;;;30.60;28.60;;;;;;5079974;28;20454;-69
2022/06/28 02:46:02;;;;;;;1.33;0.57;;;30.40;29.50;;;;;;5081155;28;20478;-67
2022/06/28 02:48:34;;;;;;;0.70;0.70;;;30.30;29.40;;;;;;5080459;28;20453;-67
2022/06/28 02:51:05;;;;;;;0.60;0.60;;;30.10;29.30;;;;;;5072943;28;20458;-68
2022/06/28 02:53:36;;;;;;;0.83;0.83;;;30.10;29.10;;;;;;5081717;28;20464;-68
2022/06/28 02:56:09;;;;;;;0.93;0.93;;;30.00;30.20;;;;;;5083009;28;20485;-67
2022/06/28 02:58:39;;;;;;;0.97;0.97;;;29.90;30.90;;;;;;5084212;28;20460;-67
2022/06/28 03:01:11;;;;;;;0.73;0.73;;;29.80;33.40;;;;;;5074215;28;20805;-67
2022/06/28 03:03:47;;;;;;;0.70;0.70;;;29.60;33.50;;;;;;5083700;28;20996;-67
2022/06/28 03:06:18;;;;;;;0.70;0.70;;;29.50;34.50;;;;;;5100055;28;20489;-67
2022/06/28 03:08:49;;;;;;;0.57;0.57;;;29.30;35.50;;;;;;5084085;28;20463;-66
2022/06/28 03:11:21;;;;;;;0.90;0.90;;;29.00;38.00;;;;;;5084048;28;20450;-67
2022/06/28 03:13:52;;;;;;;0.90;0.90;;;28.90;37.90;;;;;;5083590;28;20455;-66
2022/06/28 03:16:23;;;;;;;1.10;1.00;;;28.70;40.60;;;;;;5084957;28;20458;-67
2022/06/28 03:18:54;;;;;;;0.80;0.80;;;28.50;41.70;;;;;;5083566;28;20464;-66
2022/06/28 03:21:25;;;;;;;0.90;0.87;;;28.30;41.10;;;;;;5082528;28;20477;-65
2022/06/28 03:23:55;;;;;;;1.20;1.10;;;28.30;41.00;;;;;;5084045;28;20978;-66
2022/06/28 03:26:28;;;;;;;1.00;1.00;;;28.20;40.80;;;;;;5083273;28;20556;-66
2022/06/28 03:28:59;;;;;;;0.80;0.80;;;28.20;41.40;;;;;;5083720;28;20463;-66
2022/06/28 03:31:29;;;;;;;0.93;0.90;;;28.20;42.40;;;;;;5083564;28;20455;-66
2022/06/28 03:34:00;;;;;;;0.80;0.80;;;28.20;41.60;;;;;;5083673;28;20943;-66
2022/06/28 03:36:31;;;;;;;0.80;0.80;;;28.10;41.10;;;;;;5082513;28;20563;-66
2022/06/28 03:39:02;;;;;;;1.03;0.90;;;28.10;41.40;;;;;;5076480;28;20958;-66
2022/06/28 03:41:34;;;;;;;1.00;0.90;;;28.10;41.20;;;;;;5082864;28;21298;-65
2022/06/28 03:44:05;;;;;;;0.90;0.90;;;28.00;42.50;;;;;;5084885;28;20442;-65
2022/06/28 03:46:36;;;;;;;0.80;0.80;;;27.80;42.00;;;;;;5082536;28;20573;-66
2022/06/28 03:49:07;;;;;;;0.87;0.73;;;27.80;41.20;;;;;;5080577;28;20454;-65
2022/06/28 03:51:38;;;;;;;0.83;0.77;;;27.70;43.10;;;;;;5082621;28;20526;-65
2022/06/28 03:54:11;;;;;;;0.93;0.93;;;27.50;44.00;;;;;;5082838;28;20503;-65
2022/06/28 03:56:44;;;;;;;1.30;1.20;;;27.20;44.20;;;;;;5083187;28;20446;-65
2022/06/28 03:59:15;;;;;;;1.20;1.10;;;27.10;43.90;;;;;;5082537;28;20469;-64
2022/06/28 04:01:46;;;;;;;0.97;0.97;;;27.00;42.00;;;;;;5082239;28;20501;-66
2022/06/28 04:04:17;;;;;;;1.17;0.80;;;27.10;41.90;;;;;;5082607;28;20446;-64
2022/06/28 04:06:48;;;;;;;1.00;0.97;;;26.90;43.50;;;;;;5081632;28;20582;-65
2022/06/28 04:09:19;;;;;;;1.53;1.00;;;26.80;42.00;;;;;;5083319;28;20459;-65
2022/06/28 04:11:52;;;;;;;0.83;0.83;;;26.80;42.60;;;;;;5081952;28;20459;-64
2022/06/28 04:14:23;;;;;;;0.70;0.70;;;26.70;41.60;;;;;;5083869;28;20443;-64
2022/06/28 04:16:54;;;;;;;0.80;0.80;;;26.60;42.70;;;;;;5082757;28;20490;-64
2022/06/28 04:19:25;;;;;;;0.73;0.70;;;26.40;42.90;;;;;;5082026;28;20504;-68
2022/06/28 04:21:56;;;;;;;0.80;0.80;;;26.30;43.50;;;;;;5078922;28;20470;-64
2022/06/28 04:24:27;;;;;;;1.00;0.90;;;26.20;42.70;;;;;;5078826;28;20473;-64
2022/06/28 04:27:00;;;;;;;0.70;0.70;;;26.10;45.30;;;;;;5080575;28;20477;-65
2022/06/28 04:29:31;;;;;;;0.80;0.80;;;25.90;46.00;;;;;;5083185;28;20465;-64
2022/06/28 04:32:02;;;;;;;0.70;0.70;;;25.80;42.60;;;;;;5081993;28;20468;-64
2022/06/28 04:34:34;;;;;;;1.00;0.90;;;25.70;43.70;;;;;;5081722;28;20495;-64
2022/06/28 04:37:05;;;;;;;0.60;0.50;;;25.70;41.60;;;;;;5067702;28;20468;-63
2022/06/28 04:39:36;;;;;;;0.80;0.77;;;25.70;42.50;;;;;;5081612;28;20471;-64
2022/06/28 04:42:09;;;;;;;0.67;0.67;;;25.60;41.60;;;;;;5081530;28;20451;-65
2022/06/28 04:44:41;;;;;;;0.90;0.90;;;25.50;41.80;;;;;;5081954;28;20463;-63
2022/06/28 04:47:12;;;;;;;1.10;1.00;;;25.40;44.00;;;;;;5081008;28;20495;-63
2022/06/28 04:49:43;;;;;;;0.80;0.80;;;25.30;43.60;;;;;;5080870;28;20463;-63
2022/06/28 04:52:14;;;;;;;0.77;0.77;;;25.30;43.20;;;;;;5080351;28;20488;-63
2022/06/28 04:54:45;;;;;;;0.60;0.60;;;25.30;43.40;;;;;;5072348;28;20558;-63
2022/06/28 04:57:17;;;;;;;0.70;0.70;;;25.40;43.70;;;;;;5078815;28;20487;-63
2022/06/28 04:59:48;;;;;;;0.77;0.77;;;25.30;43.80;;;;;;5079079;28;20451;-63
2022/06/28 05:02:19;;;;;;;1.33;0.83;;;25.30;45.20;;;;;;5080184;28;20487;-63
2022/06/28 05:04:50;;;;;;;1.57;1.00;;;25.10;43.50;;;;;;5080295;28;20563;-63
2022/06/28 05:07:21;;;;;;;0.70;0.70;;;25.10;43.90;;;;;;5080233;28;20514;-63
2022/06/28 05:09:51;;;;;;;0.93;0.80;;;25.00;44.50;;;;;;5074611;28;20466;-63
2022/06/28 05:12:24;;;;;;;1.10;1.00;;;24.90;45.10;;;;;;5074739;28;20445;-63
2022/06/28 05:14:54;;;;;;;1.10;1.00;;;24.80;44.50;;;;;;5080243;28;20448;-63
2022/06/28 05:17:25;;;;;;;1.37;0.90;;;24.80;45.40;;;;;;5077397;28;20567;-63
2022/06/28 05:19:57;;;;;;;1.00;0.90;;;24.70;45.20;;;;;;5077962;28;20869;-63
2022/06/28 05:22:28;;;;;;;0.83;0.83;;;24.60;45.70;;;;;;5081775;28;20459;-63
2022/06/28 05:24:58;;;;;;;0.77;0.73;;;24.50;45.90;;;;;;5081188;28;20990;-64
2022/06/28 05:27:31;;;;;;;0.80;0.73;;;24.40;46.30;;;;;;5081731;28;20613;-63
2022/06/28 05:30:02;;;;;;;0.90;0.90;;;24.30;46.50;;;;;;5081078;28;20471;-63
2022/06/28 05:32:33;;;;;;;0.70;0.70;;;24.20;47.70;;;;;;5081826;28;20462;-63
2022/06/28 05:35:05;;;;;;;0.80;0.70;;;24.10;48.20;;;;;;5079609;28;20543;-64
2022/06/28 05:37:36;;;;;;;1.37;1.07;;;23.90;49.60;;;;;;5081164;28;20468;-65
2022/06/28 05:40:08;;;;;;;1.17;1.07;;;23.80;49.80;;;;;;5081559;28;20853;-66
2022/06/28 05:42:41;;;;;;;0.90;0.83;;;23.60;51.50;;;;;;5082410;28;20456;-66
2022/06/28 05:45:13;;;;;;;1.00;1.00;;;23.50;50.70;;;;;;5081789;28;20486;-65
2022/06/28 05:47:45;;;;;;;1.03;0.90;;;23.40;50.20;;;;;;5081699;28;20455;-66
2022/06/28 05:50:16;;;;;;;1.10;0.87;;;23.30;53.10;;;;;;5080827;28;20470;-65
2022/06/28 05:52:47;;;;;;;0.90;0.90;;;23.20;51.20;;;;;;5082031;28;20462;-65
2022/06/28 05:55:18;;;;;;;0.60;0.60;;;23.10;54.20;;;;;;5081488;28;20479;-66
2022/06/28 05:57:51;;;;;;;0.87;0.87;;;23.00;52.60;;;;;;5081994;28;20479;-65
2022/06/28 06:00:22;;;;;;;1.10;1.00;;;23.00;54.00;;;;;;5081083;28;20455;-65
2022/06/28 06:02:53;;;;;;;0.80;0.80;;;22.90;54.50;;;;;;5081546;28;20455;-65
2022/06/28 06:05:23;;;;;;;1.20;1.10;;;22.80;52.60;;;;;;5080952;28;20462;-67
2022/06/28 06:07:54;;;;;;;1.27;1.17;;;22.80;53.30;;;;;;5081679;28;21029;-66
2022/06/28 06:10:25;;;;;;;1.37;1.27;;;22.70;55.10;;;;;;5081529;28;20463;-66
2022/06/28 06:12:58;;;;;;;1.33;1.23;;;22.70;54.00;;;;;;5082115;28;20455;-66
2022/06/28 06:15:28;;;;;;;2.13;1.70;;;22.50;54.80;;;;;;5081670;28;20475;-65
2022/06/28 06:17:59;;;;;;;1.10;1.00;;;22.50;55.70;;;;;;5081390;28;20928;-65
2022/06/28 06:20:30;;;;;;;1.00;1.00;;;22.40;56.00;;;;;;5080273;28;20455;-66
2022/06/28 06:23:01;;;;;;;1.50;1.40;;;22.30;54.00;;;;;;5081504;28;20489;-66
2022/06/28 06:25:32;;;;;;;0.90;0.90;;;22.30;53.90;;;;;;5081246;28;20443;-65
2022/06/28 06:28:04;;;;;;;3.23;1.40;;;22.30;54.10;;;;;;5080493;28;20455;-65
2022/06/28 06:30:36;;;;;;;1.30;1.20;;;22.30;53.10;;;;;;5084892;28;20452;-65
2022/06/28 06:33:07;;;;;;;1.33;1.20;;;22.30;53.70;;;;;;5085794;28;20463;-65
2022/06/28 06:35:38;;;;;;;1.80;1.30;;;22.20;54.70;;;;;;5084393;28;20575;-65
2022/06/28 06:38:09;;;;;;;1.87;1.10;;;22.20;54.00;;;;;;5083831;28;20457;-66
2022/06/28 06:40:41;;;;;;;1.50;1.40;;;22.20;54.00;;;;;;5083182;28;20485;-65
2022/06/28 06:43:13;;;;;;;1.57;1.20;;;22.20;54.10;;;;;;5085405;28;20799;-65
2022/06/28 06:45:44;;;;;;;1.70;1.60;;;22.20;55.10;;;;;;5084236;28;20855;-65
2022/06/28 06:48:15;;;;;;;1.77;1.37;;;22.20;56.00;;;;;;5085481;28;20499;-65
2022/06/28 06:50:45;;;;;;;1.60;1.50;;;22.10;56.60;;;;;;5077818;28;20574;-65
2022/06/28 06:53:19;;;;;;;1.43;1.30;;;22.00;57.50;;;;;;5084593;28;20460;-65
2022/06/28 06:55:49;;;;;;;1.37;1.27;;;21.90;58.30;;;;;;5082670;28;20440;-65
2022/06/28 06:58:22;;;;;;;1.20;1.20;;;21.90;58.10;;;;;;5085041;28;20483;-65
2022/06/28 07:00:53;;;;;;;1.70;1.27;;;21.80;58.40;;;;;;5084501;28;20471;-65
2022/06/28 07:03:23;;;;;;;3.83;1.37;;;21.70;58.70;;;;;;5085193;28;20451;-65
2022/06/28 07:05:54;;;;;;;1.57;1.47;;;21.70;59.10;;;;;;5083484;28;20426;-65
2022/06/28 07:08:25;;;;;;;2.10;1.77;;;21.60;59.80;;;;;;5084940;28;20462;-66
2022/06/28 07:10:56;;;;;;;2.50;1.40;;;21.50;60.00;;;;;;5083808;28;20490;-65
2022/06/28 07:13:28;;;;;;;1.10;1.10;;;21.40;60.10;;;;;;5083560;28;20481;-65
2022/06/28 07:16:01;;;;;;;1.60;1.50;;;21.30;60.70;;;;;;5076703;28;20463;-65
2022/06/28 07:18:32;;;;;;;1.40;1.30;;;21.20;61.60;;;;;;5084570;28;20859;-65
2022/06/28 07:21:03;;;;;;;1.77;1.67;;;21.10;61.40;;;;;;5082541;28;20797;-65
2022/06/28 07:23:33;;;;;;;1.50;1.40;;;21.00;62.10;;;;;;5083454;28;20522;-67
2022/06/28 07:26:04;;;;;;;1.50;1.40;;;20.90;63.20;;;;;;5083013;28;20459;-65
2022/06/28 07:28:37;;;;;;;1.60;1.50;;;20.80;63.10;;;;;;5080957;28;20477;-65
2022/06/28 07:31:08;;;;;;;3.30;1.57;;;20.80;62.80;;;;;;5083260;28;20525;-65
2022/06/28 07:33:38;;;;;;;1.57;1.47;;;20.70;62.30;;;;;;5082456;28;20512;-65
2022/06/28 07:36:10;;;;;;;1.50;1.40;;;20.60;62.70;;;;;;5075445;28;20438;-65
2022/06/28 07:38:41;;;;;;;1.40;1.30;;;20.50;63.80;;;;;;5083753;28;20487;-64
2022/06/28 07:41:11;;;;;;;1.50;1.40;;;20.40;63.60;;;;;;5082417;28;20464;-65
2022/06/28 07:43:44;;;;;;;1.50;1.40;;;20.30;64.20;;;;;;5083345;28;20442;-65
2022/06/28 07:46:15;;;;;;;1.43;1.33;;;20.30;64.50;;;;;;5078272;28;20474;-64
2022/06/28 07:48:46;;;;;;;1.33;1.23;;;20.10;65.40;;;;;;5082614;28;20476;-65
2022/06/28 07:54:16;;;;;;;1.80;1.30;;;19.90;65.10;;;;;;5020806;28;20432;-64
2022/06/28 07:56:46;;;;;;;1.67;1.57;;;19.70;65.60;;;;;;5013998;28;20459;-65
2022/06/28 07:59:19;;;;;;;1.50;1.40;;;19.70;66.40;;;;;;5020211;28;20505;-65
2022/06/28 08:01:50;;;;;;;1.33;1.23;;;19.50;66.70;;;;;;5019478;28;20502;-65
2022/06/28 08:04:21;;;;;;;1.40;1.30;;;19.40;67.20;;;;;;5020776;28;20985;-65
2022/06/28 08:06:51;;;;;;;1.53;1.43;;;19.40;67.70;;;;;;5019107;28;20494;-66
2022/06/28 08:09:22;;;;;;;1.57;1.17;;;19.20;68.50;;;;;;5018893;28;20444;-66
2022/06/28 08:11:53;;;;;;;1.87;1.57;;;19.20;69.80;;;;;;5017955;28;20462;-66
2022/06/28 08:14:26;;;;;;;1.63;1.13;;;19.20;69.10;;;;;;5019765;28;20454;-65
2022/06/28 08:16:56;;;;;;;1.90;1.47;;;19.00;69.20;;;;;;5030200;28;20477;-66
2022/06/28 08:19:27;;;;;;;1.50;1.40;;;19.00;69.80;;;;;;5020196;28;20517;-65
2022/06/28 08:21:58;;;;;;;1.87;1.50;;;18.90;70.10;;;;;;5018546;28;20462;-65
2022/06/28 08:24:29;;;;;;;1.47;1.37;;;18.80;70.50;;;;;;5020066;28;20486;-67
2022/06/28 08:27:00;;;;;;;1.90;1.37;;;18.70;70.70;;;;;;5020663;28;20564;-65
2022/06/28 08:29:33;;;;;;;2.40;1.40;;;18.70;71.00;;;;;;5076741;28;20458;-65
2022/06/28 08:32:04;;;;;;;1.50;1.40;;;18.70;71.60;;;;;;5080044;28;20820;-65
2022/06/28 08:34:35;;;;;;;1.97;1.43;;;18.60;71.80;;;;;;5082783;28;20532;-65
2022/06/28 08:37:07;;;;;;;1.30;1.20;;;18.50;72.30;;;;;;5079758;28;20446;-66
2022/06/28 08:39:37;;;;;;;4.10;1.57;;;18.40;72.60;;;;;;5083625;28;20439;-66
2022/06/28 08:42:14;;;;;;;2.00;1.47;;;18.30;72.90;;;;;;5083042;28;20783;-65
2022/06/28 08:44:49;;;;;;;2.60;1.17;;;18.30;73.30;;;;;;5082689;28;20455;-65
2022/06/28 08:47:21;;;;;;;1.40;1.30;;;18.20;74.00;;;;;;5082878;28;20465;-65
2022/06/28 08:49:56;;;;;;;1.30;1.23;;;18.20;74.50;;;;;;5082749;28;20433;-65
2022/06/28 08:52:27;;;;;;;1.33;1.13;;;18.10;75.00;;;;;;5082385;28;20445;-65
2022/06/28 08:54:58;;;;;;;1.60;1.50;;;18.10;75.70;;;;;;5081260;28;20523;-66
2022/06/28 08:57:32;;;;;;;2.10;1.30;;;17.90;76.50;;;;;;5082454;28;20509;-65
2022/06/28 09:00:07;;;;;;;1.20;1.10;;;17.90;76.70;;;;;;5080657;28;20445;-65
2022/06/28 09:02:39;;;;;;;1.37;1.27;;;17.80;77.20;;;;;;5081773;28;20522;-65
2022/06/28 09:05:10;;;;;;;2.00;1.83;;;17.70;78.00;;;;;;5080434;28;20590;-65
2022/06/28 09:07:44;;;;;;;1.33;1.27;;;17.70;78.40;;;;;;5082013;28;20476;-65
2022/06/28 09:10:14;;;;;;;1.37;1.30;;;17.60;79.10;;;;;;5080426;28;20430;-66
2022/06/28 09:13:12;;;;;;;1.87;1.60;;;17.60;79.70;;;;;;5080743;28;20459;-65
2022/06/28 09:15:56;;;;;;;1.60;1.50;;;17.60;80.70;;;;;;5082223;28;20915;-65
2022/06/28 09:18:44;;;;;;;1.50;1.40;;;17.50;81.30;;;;;;5081024;28;20503;-65
2022/06/28 09:21:16;;;;;;;2.20;1.57;;;17.40;81.90;;;;;;5069797;28;20452;-65
2022/06/28 09:23:49;;;;;;;2.30;1.60;;;17.40;82.90;;;;;;5081385;28;20493;-65
2022/06/28 09:26:21;;;;;;;1.57;1.47;;;17.20;83.60;;;;;;5081667;28;20462;-65
2022/06/28 09:28:54;;;;;;;2.47;1.27;;;17.20;84.60;;;;;;5081949;28;20767;-65
2022/06/28 09:31:28;;;;;;;1.73;1.63;;;17.10;85.50;;;;;;5082464;28;20462;-65
2022/06/28 09:34:07;;;;;;;1.73;1.63;;;17.10;86.50;;;;;;5081888;28;20429;-65
2022/06/28 09:36:41;;;;;;;1.10;1.10;;;17.00;87.30;;;;;;5078779;28;20459;-65
2022/06/28 09:39:14;;;;;;;2.67;1.97;;;17.00;88.20;;;;;;5081030;28;20497;-65
2022/06/28 09:41:49;;;;;;;1.40;1.30;;;16.90;89.60;;;;;;5073866;28;20466;-65
2022/06/28 09:44:42;;;;;;;2.00;1.50;;;16.80;90.30;;;;;;5081203;28;20511;-65
2022/06/28 09:47:16;;;;;;;2.90;1.47;;;16.80;91.00;;;;;;5080681;28;20482;-65
2022/06/28 09:49:49;;;;;;;1.47;1.37;;;16.70;91.70;;;;;;5080619;28;20458;-65
2022/06/28 09:52:23;;;;;;;1.63;1.53;;;16.60;92.70;;;;;;5078053;28;20498;-64
2022/06/28 09:54:57;;;;;;;2.57;2.37;;;16.50;93.30;;;;;;5081161;28;20993;-65
2022/06/28 09:57:30;;;;;;;1.63;1.53;;;16.50;93.90;;;;;;5082122;28;20941;-65
2022/06/28 10:00:02;;;;;;;2.57;1.87;;;16.40;95.00;;;;;;5080189;28;20491;-65
2022/06/28 10:02:36;;;;;;;2.63;1.70;;;16.30;95.90;;;;;;5083422;28;20463;-65
2022/06/28 10:05:08;;;;;;;2.23;2.13;;;16.30;96.90;;;;;;5075420;28;20454;-65
2022/06/28 10:07:39;;;;;;;1.80;1.47;;;16.20;97.50;;;;;;5087808;28;20553;-65
2022/06/28 10:10:12;;;;;;;3.67;2.43;;;16.10;99.10;;;;;;5087283;28;20481;-65
2022/06/28 10:15:35;;;;;;;3.23;2.20;;;16.10;99.90;;;;;;5086591;28;20899;-65
2022/06/28 10:18:14;;;;;;;2.27;1.47;;;16.10;99.90;;;;;;5087990;28;20444;-65
2022/06/28 10:20:45;;;;;;;3.47;1.97;;;16.00;99.90;;;;;;5086830;28;20462;-65
2022/06/28 10:23:29;;;;;;;3.10;1.70;;;15.90;99.90;;;;;;5088204;28;20493;-65
2022/06/28 10:26:05;;;;;;;1.70;1.60;;;15.80;99.90;;;;;;5088360;28;20455;-65
2022/06/28 10:28:38;;;;;;;2.27;1.67;;;15.80;99.90;;;;;;5087565;28;20469;-65
2022/06/28 10:31:35;;;;;;;2.57;1.80;;;15.70;99.90;;;;;;5073246;28;20453;-64
2022/06/28 10:34:19;;;;;;;6.30;2.00;;;15.70;99.90;;;;;;5084819;28;20546;-65
2022/06/28 10:36:52;;;;;;;1.60;1.50;;;15.70;99.90;;;;;;5086368;28;20467;-65
2022/06/28 10:39:28;;;;;;;2.00;1.90;;;15.70;99.90;;;;;;5087111;28;20472;-64
2022/06/28 10:42:09;;;;;;;2.93;2.30;;;15.60;99.90;;;;;;5086874;28;20441;-65
2022/06/28 10:44:48;;;;;;;2.07;1.80;;;15.60;99.90;;;;;;5087526;28;20474;-65
2022/06/28 10:47:19;;;;;;;2.63;1.70;;;15.60;99.90;;;;;;5087614;28;20459;-64
2022/06/28 10:49:59;;;;;;;2.77;2.17;;;15.40;99.90;;;;;;5087695;28;20459;-64
2022/06/28 10:52:34;;;;;;;1.80;1.70;;;15.30;99.90;;;;;;5086885;28;20779;-65
2022/06/28 10:55:22;;;;;;;2.10;2.00;;;15.30;99.90;;;;;;5087139;28;20486;-65
2022/06/28 10:58:09;;;;;;;2.20;1.60;;;15.30;99.90;;;;;;5087708;28;20583;-65
2022/06/28 11:00:53;;;;;;;4.20;1.83;;;15.20;99.90;;;;;;5087166;28;20477;-65
2022/06/28 11:03:24;;;;;;;1.93;1.60;;;15.20;99.90;;;;;;5075712;28;20552;-65
2022/06/28 11:05:57;;;;;;;2.97;1.87;;;15.10;99.90;;;;;;5086110;28;20455;-65
2022/06/28 11:08:51;;;;;;;2.73;2.13;;;15.10;99.90;;;;;;5087961;28;20465;-64
2022/06/28 11:11:22;;;;;;;2.07;1.60;;;15.20;99.90;;;;;;5087413;28;20455;-64
2022/06/28 11:14:30;;;;;;;2.23;1.90;;;15.10;99.90;;;;;;5086683;28;20463;-64
2022/06/28 11:17:16;;;;;;;3.13;1.87;;;15.00;99.90;;;;;;5080554;28;20467;-64
2022/06/28 11:19:54;;;;;;;2.20;2.00;;;15.00;99.90;;;;;;5084245;28;20825;-64
2022/06/28 11:22:31;;;;;;;5.03;2.47;;;14.90;99.90;;;;;;5083452;28;20459;-64
2022/06/28 11:25:04;;;;;;;4.07;2.00;;;15.00;99.90;;;;;;5083618;28;20466;-65
2022/06/28 11:27:34;;;;;;;4.43;2.80;;;14.90;99.90;;;;;;5083849;28;20487;-65
2022/06/28 11:30:08;;;;;;;4.60;2.20;;;15.00;99.90;;;;;;5084070;28;20542;-65
2022/06/28 11:32:40;;;;;;;2.67;2.00;;;14.90;99.90;;;;;;5084412;28;20813;-65
2022/06/28 11:35:12;;;;;;;2.37;2.17;;;14.80;99.90;;;;;;5081284;28;20473;-65
2022/06/28 11:37:53;;;;;;;2.50;2.30;;;14.80;99.90;;;;;;5083069;28;20463;-64
2022/06/28 11:40:25;;;;;;;5.20;2.00;;;14.80;99.90;;;;;;5083351;28;20490;-64
2022/06/28 11:43:06;;;;;;;2.00;1.90;;;14.80;99.90;;;;;;5083354;28;20478;-65
2022/06/28 11:45:39;;;;;;;3.80;2.20;;;14.90;99.90;;;;;;5082294;28;20477;-65
2022/06/28 11:48:13;;;;;;;2.43;2.23;;;14.70;99.90;;;;;;5083419;28;20502;-64
2022/06/28 11:50:45;;;;;;;3.50;2.27;;;14.70;99.90;;;;;;5082376;28;20539;-64
2022/06/28 11:53:18;;;;;;;1.87;1.73;;;14.70;99.90;;;;;;5080251;28;20501;-64
2022/06/28 11:55:50;;;;;;;2.33;2.13;;;14.70;99.90;;;;;;5082731;28;20466;-65
2022/06/28 11:58:23;;;;;;;2.80;2.00;;;14.70;99.90;;;;;;5083041;28;21141;-65
2022/06/28 12:01:12;;;;;;;2.13;2.03;;;14.60;99.90;;;;;;5079906;28;20487;-65
2022/06/28 12:03:58;;;;;;;5.07;2.40;;;14.60;99.90;;;;;;5083447;28;20464;-64
2022/06/28 12:06:31;;;;;;;2.33;2.10;;;14.50;99.90;;;;;;5081976;28;20505;-64
2022/06/28 12:09:05;;;;;;;2.67;2.13;;;14.50;99.90;;;;;;5083095;28;20467;-64
2022/06/28 12:11:37;;;;;;;4.40;2.17;;;14.40;99.90;;;;;;5081238;28;20469;-65
2022/06/28 12:14:09;;;;;;;2.97;2.50;;;14.40;99.90;;;;;;5083059;28;20467;-64
2022/06/28 12:16:42;;;;;;;3.50;2.80;;;14.40;99.90;;;;;;5082305;28;20796;-64
2022/06/28 12:19:16;;;;;;;3.37;2.40;;;14.30;99.90;;;;;;5083454;28;20483;-65
2022/06/28 12:22:02;;;;;;;2.00;1.90;;;14.30;99.90;;;;;;5081505;28;20460;-64
2022/06/28 12:24:45;;;;;;;2.67;2.47;;;14.30;99.90;;;;;;5075921;28;20490;-64
2022/06/28 12:27:21;;;;;;;2.67;2.40;;;14.20;99.90;;;;;;5081630;28;20463;-64
2022/06/28 12:29:52;;;;;;;3.03;2.40;;;14.30;99.90;;;;;;5082178;28;20490;-64
2022/06/28 12:32:23;;;;;;;2.50;2.30;;;14.30;99.90;;;;;;5081968;28;20958;-64
2022/06/28 12:35:15;;;;;;;2.40;2.20;;;14.20;99.90;;;;;;5080164;28;20536;-65
2022/06/28 12:37:46;;;;;;;2.60;2.40;;;14.20;99.90;;;;;;5081747;28;20575;-65
2022/06/28 12:40:21;;;;;;;2.17;2.00;;;14.20;99.90;;;;;;5082613;28;20503;-65
2022/06/28 12:42:52;;;;;;;2.90;2.63;;;14.10;99.90;;;;;;5082627;28;20478;-65
2022/06/28 12:45:23;;;;;;;2.93;2.47;;;14.10;99.90;;;;;;5081636;28;20466;-65
2022/06/28 12:47:53;;;;;;;2.90;2.63;;;14.10;99.90;;;;;;5081543;28;20493;-64
2022/06/28 12:50:27;;;;;;;3.90;3.33;;;14.00;99.90;;;;;;5081287;28;21035;-64
2022/06/28 12:52:58;;;;;;;3.47;2.63;;;14.10;99.90;;;;;;5081564;28;20550;-64
2022/06/28 12:55:30;;;;;;;3.20;2.80;;;14.10;99.90;;;;;;5080847;28;20447;-64
2022/06/28 12:58:01;;;;;;;3.53;3.23;;;14.10;99.90;;;;;;5082413;28;20471;-64
2022/06/28 13:00:32;;;;;;;3.73;2.80;;;14.10;99.90;;;;;;5080860;28;20505;-64
2022/06/28 13:03:03;;;;;;;2.60;2.40;;;14.10;99.90;;;;;;5080893;28;20467;-64
2022/06/28 13:05:34;;;;;;;3.40;2.80;;;14.00;99.90;;;;;;5069409;28;20470;-65
2022/06/28 13:08:06;;;;;;;3.50;3.20;;;14.00;99.90;;;;;;5081634;28;20956;-65
2022/06/28 13:10:39;;;;;;;5.60;3.10;;;14.10;99.90;;;;;;5081987;28;20471;-64
2022/06/28 13:13:10;;;;;;;3.10;2.80;;;14.10;99.90;;;;;;5081353;28;20572;-64
2022/06/28 13:15:40;;;;;;;3.80;2.53;;;14.10;99.90;;;;;;5080920;28;20474;-64
2022/06/28 13:18:11;;;;;;;3.37;3.00;;;14.10;99.90;;;;;;5081043;28;20459;-64
2022/06/28 13:20:42;;;;;;;3.63;3.20;;;14.20;99.90;;;;;;5081449;28;20483;-64
2022/06/28 13:23:13;;;;;;;3.30;2.53;;;14.10;99.90;;;;;;5080711;28;20494;-65
2022/06/28 13:25:46;;;;;;;2.90;2.70;;;14.10;99.90;;;;;;5078174;28;20463;-64
2022/06/28 13:28:16;;;;;;;3.03;2.73;;;14.20;99.90;;;;;;5079672;28;20463;-62